Terminal Aerodrome Forecast
Issued by NWS

Home | Current Version | Previous Version | Text Only | Print | Product List | Glossary On
Versions: 1 2 3 4 5 6 7 8 9 10 11 12
478
FTPA31 PHFO 132333
TAFHKO
TAF
PHKO 132333Z 1400/1424 24009KT P6SM FEW060
     FM140600 11004KT P6SM SKC
     FM142000 24009KT P6SM FEW060
      AMD NOT SKED=

USA.gov is the U.S. government's official web portal to all federal, state and local government web resources and services.